Time;durP1;ratioP1;P1;durP2;ratioP2;P2;SDS_P1;SDS_P2;PMS_P1;PMS_P2;Temp;Humidity;BMP_temperature;BMP_pressure;BME280_temperature;BME280_humidity;BME280_pressure;Samples;Min_cycle;Max_cycle;Signal;HPM_P1;HPM_P2
2021/08/03 04:32:44;;;;;;;10.97;7.63;;;13.90;99.90;;;;;;5179718;23;20491;-79
2021/08/03 04:35:11;;;;;;;15.83;9.00;;;13.90;99.90;;;;;;4957227;28;20828;-81
2021/08/03 04:37:37;;;;;;;13.20;8.27;;;13.90;99.90;;;;;;4957841;28;21048;-81
2021/08/03 04:40:03;;;;;;;12.53;7.53;;;13.90;99.90;;;;;;4948961;28;20425;-80
2021/08/03 04:42:28;;;;;;;5.20;4.60;;;13.90;99.90;;;;;;4938551;29;20463;-78
2021/08/03 04:44:54;;;;;;;7.13;5.00;;;13.90;99.90;;;;;;4934916;29;20413;-79
2021/08/03 04:47:19;;;;;;;5.13;4.30;;;13.90;99.90;;;;;;4933429;29;20188;-77
2021/08/03 04:49:45;;;;;;;5.27;3.90;;;13.90;99.90;;;;;;4936521;29;20651;-81
2021/08/03 04:52:10;;;;;;;8.70;3.50;;;13.90;99.90;;;;;;4937671;29;20690;-81
2021/08/03 04:54:36;;;;;;;2.17;1.97;;;13.90;99.90;;;;;;4953341;29;20208;-81
2021/08/03 04:57:02;;;;;;;2.30;2.10;;;13.90;99.90;;;;;;4939010;29;20182;-79
2021/08/03 04:59:27;;;;;;;2.83;1.93;;;14.00;99.90;;;;;;4938392;29;20217;-79
2021/08/03 05:01:53;;;;;;;2.97;2.03;;;14.10;99.90;;;;;;4934816;29;20631;-79
2021/08/03 05:04:18;;;;;;;4.73;1.80;;;14.10;99.90;;;;;;4934254;29;20237;-80
2021/08/03 05:06:44;;;;;;;1.30;1.20;;;14.20;99.90;;;;;;4934752;29;20173;-79
2021/08/03 05:09:09;;;;;;;4.03;1.80;;;14.20;99.90;;;;;;4935146;29;20526;-79
2021/08/03 05:11:35;;;;;;;3.63;2.17;;;14.20;99.90;;;;;;4935081;29;20201;-79
2021/08/03 05:14:00;;;;;;;2.17;1.80;;;14.30;99.90;;;;;;4934848;29;20733;-77
2021/08/03 05:16:29;;;;;;;2.33;2.20;;;14.30;99.90;;;;;;4933385;29;20659;-78
2021/08/03 05:18:55;;;;;;;1.70;1.30;;;14.40;99.90;;;;;;4934353;29;20567;-78
2021/08/03 05:21:20;;;;;;;2.07;1.97;;;14.40;99.90;;;;;;4934559;29;20449;-79
2021/08/03 05:23:46;;;;;;;1.60;1.50;;;14.50;99.90;;;;;;4935295;29;20174;-79
2021/08/03 05:26:11;;;;;;;3.10;2.07;;;14.50;99.90;;;;;;4933740;29;20183;-79
2021/08/03 05:28:37;;;;;;;1.60;1.50;;;14.50;99.90;;;;;;4934793;29;20188;-79
2021/08/03 05:31:02;;;;;;;2.03;1.93;;;14.60;99.90;;;;;;4933862;29;20205;-76
2021/08/03 05:33:28;;;;;;;1.60;1.40;;;14.60;99.90;;;;;;4934655;29;20212;-79
2021/08/03 05:35:53;;;;;;;1.97;1.70;;;14.60;99.90;;;;;;4934224;29;20216;-79
2021/08/03 05:38:19;;;;;;;1.57;1.47;;;14.70;99.90;;;;;;4934679;29;20216;-76
2021/08/03 05:40:46;;;;;;;1.50;1.40;;;14.60;99.90;;;;;;4933909;29;20176;-79
2021/08/03 05:43:12;;;;;;;2.60;1.60;;;14.70;99.90;;;;;;4934785;29;20168;-79
2021/08/03 05:45:38;;;;;;;3.53;1.27;;;14.70;99.90;;;;;;4933598;29;20854;-72
2021/08/03 05:48:04;;;;;;;3.00;2.77;;;14.90;99.90;;;;;;4932377;29;20417;-72
2021/08/03 05:50:29;;;;;;;2.83;2.20;;;14.90;99.90;;;;;;4932837;29;20659;-73
2021/08/03 05:52:55;;;;;;;2.23;1.90;;;15.00;99.90;;;;;;4932915;29;20202;-72
2021/08/03 05:55:20;;;;;;;1.50;1.40;;;15.10;99.90;;;;;;4932416;29;20177;-72
2021/08/03 05:57:46;;;;;;;3.17;1.83;;;15.10;99.90;;;;;;4932372;29;20205;-72
2021/08/03 06:00:12;;;;;;;3.90;1.83;;;15.10;99.90;;;;;;4932731;29;20256;-72
2021/08/03 06:02:38;;;;;;;2.03;1.90;;;15.20;99.90;;;;;;4932797;28;20552;-73
2021/08/03 06:05:03;;;;;;;2.77;1.30;;;15.30;99.90;;;;;;4932733;29;20415;-73
2021/08/03 06:07:34;;;;;;;2.90;1.30;;;15.30;99.90;;;;;;4932709;29;20165;-73
2021/08/03 06:10:00;;;;;;;1.40;1.30;;;15.30;99.90;;;;;;4946413;29;20181;-73
2021/08/03 06:12:27;;;;;;;1.70;1.60;;;15.50;99.90;;;;;;4951608;28;20475;-73
2021/08/03 06:14:56;;;;;;;2.13;1.50;;;15.70;99.90;;;;;;4951846;28;20179;-74
2021/08/03 06:17:35;;;;;;;2.53;1.50;;;16.00;99.90;;;;;;4951353;28;21519;-73
2021/08/03 06:20:02;;;;;;;1.63;1.53;;;16.20;99.90;;;;;;4951842;29;20606;-71
2021/08/03 06:22:28;;;;;;;4.23;1.53;;;16.30;99.90;;;;;;4951259;28;20460;-73
2021/08/03 06:24:54;;;;;;;2.90;1.33;;;16.40;99.90;;;;;;4952094;29;20421;-73
2021/08/03 06:27:20;;;;;;;4.63;1.53;;;16.40;99.90;;;;;;4952327;29;20405;-74
2021/08/03 06:29:47;;;;;;;6.63;1.60;;;16.60;99.90;;;;;;4953021;28;20552;-73
2021/08/03 06:32:13;;;;;;;3.27;2.20;;;16.80;99.90;;;;;;4954070;29;20255;-73
2021/08/03 06:34:44;;;;;;;6.13;2.17;;;17.00;99.90;;;;;;4955532;29;20420;-76
2021/08/03 06:37:11;;;;;;;3.10;1.50;;;17.30;99.90;;;;;;4955169;28;20422;-73
2021/08/03 06:39:37;;;;;;;1.70;1.57;;;17.50;99.90;;;;;;4955464;29;20456;-73
2021/08/03 06:42:14;;;;;;;7.53;2.00;;;17.90;99.90;;;;;;4955448;28;20849;-73
2021/08/03 06:45:19;;;;;;;3.00;1.30;;;18.10;99.90;;;;;;4955548;28;20424;-70
2021/08/03 06:48:09;;;;;;;1.67;1.30;;;18.20;99.90;;;;;;4933382;29;20488;-74
2021/08/03 06:50:45;;;;;;;3.93;1.40;;;18.20;99.90;;;;;;4933928;29;20421;-70
2021/08/03 06:53:12;;;;;;;2.50;1.20;;;18.40;99.90;;;;;;4949054;29;20932;-74
2021/08/03 06:55:45;;;;;;;3.27;1.50;;;18.60;99.90;;;;;;4954534;28;20508;-73
2021/08/03 06:58:24;;;;;;;2.70;1.13;;;18.90;99.90;;;;;;4955206;28;20459;-73
2021/08/03 07:00:51;;;;;;;4.80;1.70;;;19.30;99.90;;;;;;4955349;28;20416;-73
2021/08/03 07:03:24;;;;;;;1.07;0.90;;;19.50;99.90;;;;;;4953878;29;20428;-73
2021/08/03 07:05:53;;;;;;;2.10;0.93;;;19.40;99.90;;;;;;4954565;28;20417;-73
2021/08/03 07:08:19;;;;;;;2.10;1.00;;;19.30;99.90;;;;;;4955007;28;20428;-71
2021/08/03 07:10:45;;;;;;;1.40;1.20;;;19.30;99.90;;;;;;4955157;29;20436;-74
2021/08/03 07:13:13;;;;;;;1.30;1.20;;;19.20;99.90;;;;;;4952559;28;20928;-74
2021/08/03 07:15:39;;;;;;;1.73;0.90;;;19.10;99.90;;;;;;4954078;29;20416;-74
2021/08/03 07:18:07;;;;;;;1.23;0.80;;;19.20;99.90;;;;;;4954948;29;20812;-73
2021/08/03 07:20:34;;;;;;;3.10;0.90;;;19.40;99.90;;;;;;4955011;28;20423;-70
2021/08/03 07:23:01;;;;;;;1.70;1.60;;;19.50;99.90;;;;;;4954763;29;20423;-73
2021/08/03 07:25:27;;;;;;;1.57;1.47;;;19.80;99.90;;;;;;4954016;28;20413;-71
2021/08/03 07:27:52;;;;;;;9.03;1.10;;;19.90;99.90;;;;;;4953484;29;20428;-71
2021/08/03 07:30:18;;;;;;;0.93;0.83;;;20.10;99.90;;;;;;4954668;29;20189;-75
2021/08/03 07:32:43;;;;;;;2.13;0.97;;;20.20;99.90;;;;;;4954704;28;20216;-74
2021/08/03 07:35:09;;;;;;;0.83;0.73;;;20.00;99.90;;;;;;4954648;29;20535;-74
2021/08/03 07:37:36;;;;;;;6.80;1.10;;;20.00;99.90;;;;;;4954267;28;20255;-73
2021/08/03 07:40:02;;;;;;;1.93;0.97;;;19.90;99.90;;;;;;4954608;28;20173;-71
2021/08/03 07:42:27;;;;;;;2.47;1.00;;;20.00;99.90;;;;;;4953905;28;20439;-72
2021/08/03 07:44:53;;;;;;;3.43;1.27;;;20.10;99.90;;;;;;4954856;28;20505;-73
2021/08/03 07:47:18;;;;;;;0.77;0.77;;;20.10;99.90;;;;;;4953847;28;20196;-73
2021/08/03 07:49:46;;;;;;;1.17;1.00;;;20.10;99.90;;;;;;4954045;28;20192;-72
2021/08/03 07:52:11;;;;;;;1.50;0.63;;;20.00;99.90;;;;;;4954261;28;20229;-72
2021/08/03 07:54:37;;;;;;;0.80;0.80;;;19.90;99.90;;;;;;4954321;28;20511;-70
2021/08/03 07:57:02;;;;;;;5.17;0.93;;;20.00;99.90;;;;;;4953777;29;20204;-69
2021/08/03 07:59:28;;;;;;;1.57;1.00;;;20.20;99.90;;;;;;4954097;29;20215;-73
2021/08/03 08:01:53;;;;;;;0.97;0.97;;;20.40;99.90;;;;;;4954561;28;20200;-73
2021/08/03 08:04:19;;;;;;;1.33;0.87;;;20.40;99.90;;;;;;4952410;29;20185;-70
2021/08/03 08:06:44;;;;;;;0.90;0.80;;;20.40;99.90;;;;;;4954000;28;20177;-74
2021/08/03 08:09:10;;;;;;;1.10;1.03;;;20.40;99.90;;;;;;4954079;29;20177;-73
2021/08/03 08:11:35;;;;;;;2.03;1.50;;;20.40;99.90;;;;;;4953892;29;20205;-73
2021/08/03 08:14:01;;;;;;;1.33;0.83;;;20.50;99.90;;;;;;4953744;29;20236;-73
2021/08/03 08:16:26;;;;;;;0.70;0.70;;;20.60;99.90;;;;;;4953311;28;20658;-72
2021/08/03 08:18:52;;;;;;;1.20;0.80;;;20.50;99.90;;;;;;4953967;29;20272;-72
2021/08/03 08:21:17;;;;;;;2.30;1.33;;;20.50;99.90;;;;;;4953880;29;20733;-73
2021/08/03 08:23:43;;;;;;;0.87;0.80;;;20.60;99.90;;;;;;4953838;29;20183;-72
2021/08/03 08:26:08;;;;;;;1.30;0.80;;;20.60;99.90;;;;;;4953170;28;20188;-73
2021/08/03 08:28:34;;;;;;;5.10;1.10;;;20.40;99.90;;;;;;4953313;28;20183;-72
2021/08/03 08:31:00;;;;;;;0.80;0.80;;;20.40;99.90;;;;;;4953381;28;20215;-71
2021/08/03 08:33:25;;;;;;;3.23;0.90;;;20.30;99.90;;;;;;4953533;28;20681;-72
2021/08/03 08:35:52;;;;;;;1.53;0.90;;;20.20;99.90;;;;;;4952846;29;20703;-72
2021/08/03 08:38:17;;;;;;;1.50;0.87;;;20.20;99.90;;;;;;4952976;28;20551;-71
2021/08/03 08:40:44;;;;;;;1.93;1.00;;;20.20;99.90;;;;;;4953276;29;20203;-71
2021/08/03 08:43:14;;;;;;;1.00;1.00;;;20.40;99.90;;;;;;4953219;28;20185;-72
2021/08/03 08:45:44;;;;;;;2.33;1.03;;;20.50;99.90;;;;;;4952992;28;20487;-70
2021/08/03 08:48:11;;;;;;;3.77;1.10;;;20.60;99.90;;;;;;4953228;28;20438;-73
2021/08/03 08:50:38;;;;;;;1.47;1.00;;;20.60;99.90;;;;;;4953231;28;20471;-70
2021/08/03 08:53:04;;;;;;;2.40;1.87;;;20.70;99.90;;;;;;4951595;28;20424;-73
2021/08/03 08:55:29;;;;;;;1.30;0.90;;;20.80;99.90;;;;;;4952972;29;20419;-72
2021/08/03 08:57:55;;;;;;;1.63;1.10;;;20.80;99.90;;;;;;4953147;28;20231;-72
2021/08/03 09:00:22;;;;;;;0.93;0.80;;;20.90;99.90;;;;;;4952793;29;20558;-74
2021/08/03 09:02:56;;;;;;;1.57;1.30;;;20.90;99.90;;;;;;4952833;28;20201;-72
2021/08/03 09:05:36;;;;;;;1.40;1.30;;;21.30;99.90;;;;;;4952536;29;20421;-70
2021/08/03 09:08:03;;;;;;;4.00;1.20;;;21.40;99.90;;;;;;4952718;29;20443;-73
2021/08/03 09:10:33;;;;;;;1.33;1.03;;;21.60;99.90;;;;;;4952789;28;20794;-72
2021/08/03 09:13:10;;;;;;;1.33;0.90;;;21.80;99.90;;;;;;4953261;28;20918;-72
2021/08/03 09:16:01;;;;;;;1.20;1.00;;;21.80;99.90;;;;;;5111353;27;1198165;-73
2021/08/03 09:18:34;;;;;;;2.27;1.30;;;21.60;99.90;;;;;;5125796;28;20408;-72
2021/08/03 09:21:00;;;;;;;1.10;0.90;;;21.10;99.90;;;;;;5128198;28;20477;-79
2021/08/03 09:24:01;;;;;;;1.10;1.03;;;20.50;99.90;;;;;;5128648;27;20909;-77
2021/08/03 09:26:49;;;;;;;4.17;1.13;;;19.90;99.90;;;;;;5045405;28;20181;-79
2021/08/03 09:29:17;;;;;;;2.80;1.30;;;19.60;99.90;;;;;;5126188;27;20407;-80
2021/08/03 09:31:54;;;;;;;2.20;1.37;;;19.30;99.90;;;;;;5131788;27;20408;-79
2021/08/03 09:34:20;;;;;;;1.43;0.90;;;19.00;99.90;;;;;;5131430;27;20456;-78
2021/08/03 09:36:57;;;;;;;2.40;0.80;;;18.70;99.90;;;;;;5130330;27;20405;-79
2021/08/03 09:39:38;;;;;;;2.40;0.80;;;18.30;99.90;;;;;;5127902;28;20989;-79
2021/08/03 09:42:06;;;;;;;3.27;0.93;;;17.60;99.90;;;;;;5127992;27;20431;-78
2021/08/03 09:44:32;;;;;;;1.63;0.93;;;17.10;99.90;;;;;;5129514;28;20452;-77
2021/08/03 09:46:59;;;;;;;3.10;1.10;;;16.80;99.90;;;;;;5128242;28;20419;-76
2021/08/03 09:49:43;;;;;;;0.70;0.70;;;16.80;99.90;;;;;;5129358;27;20792;-77
2021/08/03 09:52:11;;;;;;;1.50;0.90;;;16.60;99.90;;;;;;5128192;27;20428;-77
2021/08/03 09:54:38;;;;;;;1.63;1.37;;;16.50;99.90;;;;;;5128603;27;20458;-78
2021/08/03 09:57:17;;;;;;;2.30;1.10;;;16.50;99.90;;;;;;5128449;27;20954;-79
2021/08/03 09:59:42;;;;;;;1.70;1.60;;;16.50;99.90;;;;;;5127159;28;20424;-78
2021/08/03 10:02:15;;;;;;;2.57;1.10;;;16.50;99.90;;;;;;5128435;28;20424;-79
2021/08/03 10:04:42;;;;;;;1.70;0.93;;;16.50;99.90;;;;;;5129252;27;20637;-78
2021/08/03 10:07:08;;;;;;;4.00;0.70;;;16.50;99.90;;;;;;5128842;27;20427;-78
2021/08/03 10:09:35;;;;;;;3.00;1.30;;;16.50;99.90;;;;;;5126793;28;20416;-77
2021/08/03 10:12:00;;;;;;;1.30;1.00;;;16.40;99.90;;;;;;5128703;27;20822;-77
2021/08/03 10:14:26;;;;;;;4.43;0.80;;;16.40;99.90;;;;;;5127162;27;20467;-77
2021/08/03 10:16:53;;;;;;;1.00;0.90;;;16.40;99.90;;;;;;5126225;28;20170;-78
2021/08/03 10:19:30;;;;;;;4.57;1.03;;;16.40;99.90;;;;;;5127608;27;20417;-77
2021/08/03 10:22:02;;;;;;;0.80;0.80;;;16.50;99.90;;;;;;5127239;28;20527;-78
2021/08/03 10:24:31;;;;;;;3.00;0.90;;;16.60;99.90;;;;;;5127629;27;20502;-79
2021/08/03 10:27:10;;;;;;;1.57;1.20;;;16.80;99.90;;;;;;5115147;27;20412;-78
2021/08/03 10:29:57;;;;;;;0.93;0.80;;;17.00;99.90;;;;;;5113627;28;20425;-75
2021/08/03 10:32:44;;;;;;;1.97;0.83;;;17.30;99.90;;;;;;5114290;28;20464;-78
2021/08/03 10:35:15;;;;;;;0.97;0.97;;;17.50;99.90;;;;;;5114626;28;20463;-79
2021/08/03 10:37:59;;;;;;;2.20;0.90;;;17.60;99.90;;;;;;5114066;28;20845;-79
2021/08/03 10:40:43;;;;;;;1.67;0.90;;;17.70;99.90;;;;;;5114137;28;20415;-78
2021/08/03 10:43:22;;;;;;;1.00;0.90;;;17.70;99.90;;;;;;5113796;28;20404;-79
2021/08/03 10:45:49;;;;;;;1.03;0.90;;;17.50;99.90;;;;;;5113175;28;20816;-79
2021/08/03 10:48:39;;;;;;;0.90;0.80;;;17.50;99.90;;;;;;5113629;28;20397;-79
2021/08/03 10:51:14;;;;;;;4.60;1.00;;;17.60;99.90;;;;;;5113614;28;20425;-78
2021/08/03 10:53:52;;;;;;;1.77;1.50;;;17.70;99.90;;;;;;5113241;28;20443;-76
2021/08/03 10:56:20;;;;;;;2.10;1.23;;;17.70;99.90;;;;;;5111816;28;20509;-79
2021/08/03 10:58:46;;;;;;;3.40;1.33;;;17.90;99.90;;;;;;5114144;28;20445;-78
2021/08/03 11:01:44;;;;;;;2.20;0.70;;;18.00;99.90;;;;;;5113714;28;20448;-80
2021/08/03 11:04:30;;;;;;;2.73;1.30;;;18.80;99.90;;;;;;5113216;28;20175;-79
2021/08/03 11:06:55;;;;;;;2.20;1.40;;;20.00;99.90;;;;;;5115289;28;20796;-79
2021/08/03 11:09:31;;;;;;;1.77;1.20;;;20.80;99.90;;;;;;5114809;28;20409;-78
2021/08/03 11:12:31;;;;;;;1.50;0.90;;;20.60;99.90;;;;;;5113917;28;20584;-81
2021/08/03 11:14:57;;;;;;;1.20;1.10;;;20.00;99.90;;;;;;5114838;28;20841;-79
2021/08/03 11:17:48;;;;;;;0.83;0.80;;;19.60;99.90;;;;;;5114074;28;20405;-78
2021/08/03 11:20:35;;;;;;;2.40;1.50;;;19.50;99.90;;;;;;5114407;28;20167;-78
2021/08/03 11:23:01;;;;;;;1.03;0.97;;;19.70;99.90;;;;;;5113372;28;20405;-78
2021/08/03 11:25:28;;;;;;;2.30;1.43;;;20.30;99.90;;;;;;5112718;28;20405;-79
2021/08/03 11:27:54;;;;;;;7.67;2.50;;;20.80;99.90;;;;;;5113119;28;20424;-78
2021/08/03 11:30:20;;;;;;;1.70;1.50;;;21.10;99.90;;;;;;5112956;28;20414;-77
2021/08/03 11:32:50;;;;;;;2.07;1.20;;;21.30;99.90;;;;;;5112804;28;20944;-78
2021/08/03 11:35:28;;;;;;;1.47;1.37;;;21.40;99.90;;;;;;5111705;28;20369;-79
2021/08/03 11:37:54;;;;;;;1.40;1.30;;;21.20;99.90;;;;;;5111823;28;20409;-79
2021/08/03 11:40:20;;;;;;;1.17;1.07;;;20.80;99.90;;;;;;5115988;28;20825;-78
2021/08/03 11:42:46;;;;;;;1.57;1.30;;;20.80;99.90;;;;;;5114502;28;20265;-78
2021/08/03 11:45:18;;;;;;;1.47;1.37;;;20.80;99.90;;;;;;5113129;28;20176;-78
2021/08/03 11:47:51;;;;;;;2.00;1.33;;;20.50;99.90;;;;;;5112837;28;20453;-78
2021/08/03 11:50:28;;;;;;;2.30;1.60;;;20.40;99.90;;;;;;5112996;28;20784;-79
2021/08/03 11:52:54;;;;;;;2.50;1.30;;;20.50;99.90;;;;;;5111541;28;20429;-79
2021/08/03 11:55:19;;;;;;;1.40;1.30;;;20.50;99.90;;;;;;5110576;28;20755;-75
2021/08/03 11:57:48;;;;;;;3.80;1.37;;;20.40;99.90;;;;;;5113744;28;20694;-78
2021/08/03 12:00:19;;;;;;;1.90;1.53;;;20.60;99.90;;;;;;5114067;28;20653;-79
2021/08/03 12:02:47;;;;;;;1.87;1.73;;;20.70;99.90;;;;;;5112858;28;20454;-79
2021/08/03 12:05:19;;;;;;;2.10;1.50;;;20.80;99.90;;;;;;5114179;28;20405;-79
2021/08/03 12:08:00;;;;;;;2.03;0.97;;;20.90;99.90;;;;;;5112739;27;20486;-79
2021/08/03 12:10:38;;;;;;;1.13;1.03;;;20.90;99.90;;;;;;5110888;28;20458;-78
2021/08/03 12:13:06;;;;;;;1.63;1.00;;;21.00;99.90;;;;;;5111342;28;20405;-78
2021/08/03 12:15:44;;;;;;;1.03;1.03;;;21.00;99.90;;;;;;5111431;28;20548;-77
2021/08/03 12:18:10;;;;;;;2.57;0.90;;;21.10;99.90;;;;;;5112168;28;20771;-78
2021/08/03 12:20:49;;;;;;;1.17;1.07;;;21.20;99.90;;;;;;5117293;28;20409;-76
2021/08/03 12:23:20;;;;;;;1.13;1.13;;;21.10;99.90;;;;;;5109623;28;20179;-76
2021/08/03 12:25:48;;;;;;;1.23;1.10;;;21.10;99.90;;;;;;5111322;28;20462;-77
2021/08/03 12:28:36;;;;;;;1.00;1.00;;;21.00;99.90;;;;;;5109861;28;20496;-76
2021/08/03 12:31:28;;;;;;;0.83;0.83;;;20.60;99.90;;;;;;5111285;28;20429;-75
2021/08/03 12:34:12;;;;;;;2.50;1.43;;;20.60;99.90;;;;;;5111303;28;20463;-77
2021/08/03 12:36:43;;;;;;;1.23;1.13;;;20.60;99.90;;;;;;5110349;28;20401;-77
2021/08/03 12:39:25;;;;;;;1.20;1.20;;;20.50;99.90;;;;;;5110772;28;20509;-77
2021/08/03 12:42:10;;;;;;;2.00;1.00;;;20.50;99.90;;;;;;5111397;28;20482;-77
2021/08/03 12:44:40;;;;;;;1.20;0.80;;;20.50;99.90;;;;;;5111207;28;20416;-77
2021/08/03 12:47:08;;;;;;;0.80;0.80;;;20.50;99.90;;;;;;5108841;28;20420;-77
2021/08/03 12:49:35;;;;;;;2.93;0.70;;;20.60;99.90;;;;;;5110438;28;20416;-77
2021/08/03 12:52:11;;;;;;;0.90;0.60;;;20.70;99.90;;;;;;5111022;28;20909;-75
2021/08/03 12:54:38;;;;;;;0.93;0.93;;;20.70;99.90;;;;;;5110455;28;20937;-77
2021/08/03 12:57:05;;;;;;;1.30;1.20;;;20.70;99.90;;;;;;5110288;28;20566;-77
2021/08/03 12:59:37;;;;;;;0.90;0.90;;;20.80;99.90;;;;;;5110873;28;20398;-76
2021/08/03 13:02:03;;;;;;;1.47;0.60;;;21.10;99.90;;;;;;5110883;28;20433;-74
2021/08/03 13:04:29;;;;;;;1.97;1.03;;;21.40;99.90;;;;;;5110959;28;20878;-78
2021/08/03 13:06:57;;;;;;;2.57;0.87;;;21.80;99.90;;;;;;5111286;28;20409;-76
2021/08/03 13:09:23;;;;;;;0.67;0.60;;;22.10;99.90;;;;;;5111983;28;20601;-77
2021/08/03 13:11:48;;;;;;;0.70;0.63;;;22.30;99.90;;;;;;5111343;28;20436;-78
2021/08/03 13:14:14;;;;;;;0.80;0.80;;;22.40;99.90;;;;;;5111816;28;20233;-78
2021/08/03 13:16:39;;;;;;;1.40;1.00;;;22.20;99.90;;;;;;5112333;28;20225;-75
2021/08/03 13:19:05;;;;;;;0.80;0.57;;;22.30;99.90;;;;;;5111633;28;20639;-76
2021/08/03 13:21:30;;;;;;;2.20;0.67;;;22.30;99.90;;;;;;5110721;28;20195;-79
2021/08/03 13:23:56;;;;;;;0.90;0.70;;;22.40;99.90;;;;;;5111928;28;20179;-78
2021/08/03 13:26:22;;;;;;;0.83;0.83;;;22.50;99.90;;;;;;5110537;28;20253;-75
2021/08/03 13:28:48;;;;;;;2.40;0.70;;;22.40;99.90;;;;;;5111045;28;20409;-77
2021/08/03 13:31:14;;;;;;;0.60;0.60;;;22.40;99.90;;;;;;5111486;28;20218;-77
2021/08/03 13:33:39;;;;;;;0.80;0.77;;;22.30;99.90;;;;;;5110136;28;20176;-76
2021/08/03 13:36:05;;;;;;;0.73;0.63;;;22.20;99.90;;;;;;5111174;28;20167;-75
2021/08/03 13:38:30;;;;;;;0.80;0.60;;;22.10;99.90;;;;;;5111612;28;20172;-76
2021/08/03 13:40:56;;;;;;;1.13;0.90;;;21.90;99.90;;;;;;5111636;28;20195;-78
2021/08/03 13:43:22;;;;;;;0.70;0.70;;;21.80;99.90;;;;;;5110767;28;20265;-77
2021/08/03 13:45:47;;;;;;;1.03;0.77;;;21.70;99.90;;;;;;5111615;28;20571;-78
2021/08/03 13:48:13;;;;;;;1.10;1.00;;;21.70;99.90;;;;;;5110990;28;20409;-78
2021/08/03 13:50:38;;;;;;;1.17;1.07;;;21.40;99.90;;;;;;5110809;28;20183;-78
2021/08/03 13:53:04;;;;;;;1.03;0.93;;;21.20;99.90;;;;;;5110858;28;20247;-78
2021/08/03 13:55:30;;;;;;;1.00;0.97;;;21.00;99.90;;;;;;5110278;28;20289;-76
2021/08/03 13:57:56;;;;;;;1.13;0.80;;;21.00;99.90;;;;;;5109474;28;20160;-76
2021/08/03 14:00:21;;;;;;;0.90;0.90;;;20.90;99.90;;;;;;5109946;28;20418;-76
2021/08/03 14:02:47;;;;;;;1.83;1.10;;;20.60;99.90;;;;;;5113882;28;20675;-76
2021/08/03 14:05:12;;;;;;;1.07;0.70;;;20.40;99.90;;;;;;5113509;28;20178;-76
2021/08/03 14:07:38;;;;;;;0.80;0.80;;;20.20;99.90;;;;;;5113397;28;20180;-76
2021/08/03 14:10:04;;;;;;;0.90;0.70;;;20.20;99.90;;;;;;5113830;28;20175;-77
2021/08/03 14:12:30;;;;;;;1.10;1.00;;;20.20;99.90;;;;;;5113666;28;20664;-76
2021/08/03 14:14:56;;;;;;;1.00;0.70;;;20.10;99.90;;;;;;5113190;28;20460;-77
2021/08/03 14:17:21;;;;;;;1.03;0.80;;;20.10;99.90;;;;;;5111572;28;20242;-76
2021/08/03 14:19:47;;;;;;;2.40;0.90;;;20.10;99.90;;;;;;5113645;28;20172;-77
2021/08/03 14:22:12;;;;;;;1.87;0.80;;;20.20;99.90;;;;;;5113407;28;20563;-76
2021/08/03 14:24:39;;;;;;;0.70;0.70;;;20.40;99.90;;;;;;5113226;28;20590;-76
2021/08/03 14:27:05;;;;;;;0.80;0.80;;;20.50;99.90;;;;;;5113077;28;20260;-77
2021/08/03 14:29:35;;;;;;;1.20;0.77;;;20.60;99.90;;;;;;5113376;28;20420;-77
2021/08/03 14:32:01;;;;;;;1.67;0.70;;;20.70;99.90;;;;;;5113231;28;20504;-76
2021/08/03 14:34:27;;;;;;;0.70;0.67;;;20.80;99.90;;;;;;5113408;28;20564;-77
2021/08/03 14:36:52;;;;;;;1.43;1.33;;;20.80;99.90;;;;;;5113267;28;20204;-77
2021/08/03 14:39:18;;;;;;;0.77;0.77;;;20.90;99.90;;;;;;5113332;28;20202;-77
2021/08/03 14:41:43;;;;;;;2.10;0.90;;;21.00;99.90;;;;;;5113293;28;20191;-77
2021/08/03 14:44:09;;;;;;;0.77;0.77;;;21.10;99.90;;;;;;5112782;28;20742;-77
2021/08/03 14:46:35;;;;;;;1.73;0.70;;;21.20;99.90;;;;;;5112865;28;20171;-77
2021/08/03 14:49:00;;;;;;;5.13;1.13;;;21.00;99.90;;;;;;5112779;28;20258;-77
2021/08/03 14:51:26;;;;;;;0.80;0.80;;;21.00;99.90;;;;;;5113088;28;20656;-77
2021/08/03 14:53:52;;;;;;;0.73;0.63;;;20.90;99.90;;;;;;5113122;28;20206;-76
2021/08/03 14:56:17;;;;;;;0.90;0.90;;;21.00;99.90;;;;;;5112194;28;20175;-77
2021/08/03 14:58:44;;;;;;;1.23;1.07;;;21.00;99.90;;;;;;5113332;28;20175;-77
2021/08/03 15:01:10;;;;;;;0.80;0.80;;;21.00;99.90;;;;;;5111566;28;20566;-76
2021/08/03 15:03:36;;;;;;;1.30;0.73;;;21.00;99.90;;;;;;5111833;28;20504;-76
2021/08/03 15:06:02;;;;;;;1.83;0.60;;;21.10;99.90;;;;;;5111784;28;20246;-75
2021/08/03 15:08:28;;;;;;;4.20;0.80;;;21.00;99.90;;;;;;5112918;28;20417;-77
2021/08/03 15:10:53;;;;;;;0.80;0.80;;;21.10;99.90;;;;;;5112860;28;20178;-77
2021/08/03 15:13:19;;;;;;;0.87;0.87;;;21.20;99.90;;;;;;5112157;28;20250;-75
2021/08/03 15:15:44;;;;;;;2.20;0.70;;;21.10;99.90;;;;;;5112450;28;20210;-77
2021/08/03 15:18:11;;;;;;;0.77;0.77;;;21.10;99.90;;;;;;5111904;28;20175;-77
2021/08/03 15:20:37;;;;;;;1.70;1.07;;;21.00;99.90;;;;;;5110734;28;20178;-76
2021/08/03 15:23:03;;;;;;;3.03;0.80;;;21.00;99.90;;;;;;5112294;28;20502;-76
2021/08/03 15:25:29;;;;;;;5.13;1.07;;;21.10;99.90;;;;;;5111357;28;20826;-77
2021/08/03 15:27:55;;;;;;;1.30;1.20;;;21.10;99.90;;;;;;5111962;28;20667;-78
2021/08/03 15:30:21;;;;;;;1.30;0.93;;;21.20;99.90;;;;;;5112278;28;20179;-75
2021/08/03 15:32:46;;;;;;;0.83;0.83;;;21.10;99.90;;;;;;5111698;28;21132;-76
2021/08/03 15:35:12;;;;;;;4.83;0.80;;;21.10;99.90;;;;;;5112170;28;20498;-76
2021/08/03 15:37:38;;;;;;;1.50;1.10;;;21.10;99.90;;;;;;5111545;28;20167;-74
2021/08/03 15:40:04;;;;;;;0.70;0.70;;;21.00;99.90;;;;;;5111926;28;20167;-77
2021/08/03 15:42:30;;;;;;;2.10;0.80;;;21.10;99.90;;;;;;5110729;28;20191;-77
2021/08/03 15:44:55;;;;;;;1.17;0.70;;;21.00;99.90;;;;;;5112262;28;20432;-77
2021/08/03 15:47:22;;;;;;;2.50;0.90;;;21.10;99.90;;;;;;5110944;28;20207;-76
2021/08/03 15:49:48;;;;;;;2.10;0.80;;;21.20;99.90;;;;;;5111864;28;20610;-74
2021/08/03 15:52:13;;;;;;;0.83;0.73;;;21.20;99.90;;;;;;5110378;28;20441;-76
2021/08/03 15:54:39;;;;;;;1.03;0.77;;;21.20;99.90;;;;;;5111652;28;20490;-74
2021/08/03 15:57:05;;;;;;;0.90;0.70;;;21.20;99.90;;;;;;5098045;28;20185;-75
2021/08/03 15:59:30;;;;;;;1.37;1.27;;;21.10;99.90;;;;;;5079560;28;20176;-72
2021/08/03 16:01:56;;;;;;;1.90;1.00;;;21.10;99.90;;;;;;5090884;28;20266;-72
2021/08/03 16:04:21;;;;;;;0.87;0.87;;;21.10;99.90;;;;;;5091005;28;20179;-74
2021/08/03 16:06:47;;;;;;;1.97;0.90;;;21.00;99.90;;;;;;5090607;28;20176;-77
2021/08/03 16:09:12;;;;;;;1.17;0.93;;;21.00;99.90;;;;;;5089042;28;20527;-76
2021/08/03 16:11:38;;;;;;;0.80;0.80;;;20.90;99.90;;;;;;5090734;28;20196;-76
2021/08/03 16:14:03;;;;;;;1.23;1.00;;;20.80;99.90;;;;;;5090305;28;20243;-76
2021/08/03 16:16:30;;;;;;;1.47;0.93;;;20.70;99.90;;;;;;5089215;28;20661;-73
2021/08/03 16:19:01;;;;;;;0.90;0.80;;;20.70;99.90;;;;;;5090660;28;20160;-75
2021/08/03 16:21:27;;;;;;;0.87;0.87;;;20.40;99.90;;;;;;5089287;28;20522;-74
2021/08/03 16:23:54;;;;;;;0.93;0.93;;;20.30;99.90;;;;;;5089403;28;20421;-76
2021/08/03 16:26:22;;;;;;;1.40;1.30;;;20.30;99.90;;;;;;5089954;28;20418;-76
2021/08/03 16:28:49;;;;;;;0.93;0.80;;;20.10;99.90;;;;;;5090399;28;20422;-72
2021/08/03 16:31:15;;;;;;;1.20;1.10;;;20.00;99.90;;;;;;5089632;28;20429;-72
2021/08/03 16:33:46;;;;;;;1.00;0.90;;;20.00;99.90;;;;;;5090071;28;20441;-75
2021/08/03 16:36:18;;;;;;;1.63;1.53;;;19.90;99.90;;;;;;5089837;28;20414;-75
2021/08/03 16:38:44;;;;;;;1.07;0.97;;;19.90;99.90;;;;;;5090147;28;20749;-76
2021/08/03 16:41:13;;;;;;;1.10;1.00;;;19.80;99.90;;;;;;5088351;28;20438;-73
2021/08/03 16:43:41;;;;;;;1.53;0.90;;;19.80;99.90;;;;;;5090534;28;20413;-74
2021/08/03 16:46:07;;;;;;;1.07;0.80;;;19.80;99.90;;;;;;5090269;28;20439;-75
2021/08/03 16:48:33;;;;;;;0.80;0.80;;;19.70;99.90;;;;;;5089434;28;20986;-74
2021/08/03 16:50:59;;;;;;;1.07;1.00;;;19.70;99.90;;;;;;5090155;28;20517;-76
2021/08/03 16:53:25;;;;;;;2.37;1.00;;;19.70;99.90;;;;;;5090190;28;20255;-76
2021/08/03 16:55:51;;;;;;;1.20;1.00;;;19.60;99.90;;;;;;5089967;28;20540;-72
2021/08/03 16:58:18;;;;;;;0.83;0.83;;;19.60;99.90;;;;;;5089338;28;20641;-75
2021/08/03 17:01:10;;;;;;;1.10;1.00;;;19.60;99.90;;;;;;5089428;28;20414;-74
2021/08/03 17:03:50;;;;;;;0.97;0.93;;;19.60;99.90;;;;;;5090116;28;20755;-76
2021/08/03 17:06:24;;;;;;;1.10;0.70;;;19.50;99.90;;;;;;5088136;28;20406;-75
2021/08/03 17:09:10;;;;;;;0.77;0.77;;;19.50;99.90;;;;;;5090149;28;20497;-73
2021/08/03 17:11:53;;;;;;;0.83;0.73;;;19.40;99.90;;;;;;5089145;28;20458;-76
2021/08/03 17:14:24;;;;;;;0.70;0.70;;;19.30;99.90;;;;;;5089841;28;20491;-76
2021/08/03 17:16:54;;;;;;;1.00;0.90;;;19.30;99.90;;;;;;5089452;28;20417;-77
2021/08/03 17:19:21;;;;;;;2.37;1.00;;;19.20;99.90;;;;;;5089780;28;20421;-77
2021/08/03 17:21:55;;;;;;;1.20;1.00;;;19.00;99.90;;;;;;5089940;28;20430;-76
2021/08/03 17:24:26;;;;;;;0.70;0.70;;;18.90;99.90;;;;;;5089881;28;20406;-76
2021/08/03 17:26:53;;;;;;;1.33;0.80;;;18.80;99.90;;;;;;5089124;28;20921;-76